Time;durP1;ratioP1;P1;durP2;ratioP2;P2;SDS_P1;SDS_P2;PMS_P1;PMS_P2;Temp;Humidity;BMP_temperature;BMP_pressure;BME280_temperature;BME280_humidity;BME280_pressure;Samples;Min_cycle;Max_cycle;Signal;HPM_P1;HPM_P2
2022/09/30 00:00:36;;;;;;;32.00;12.13;;;9.90;44.30;;;;;;5032479;28;20470;-62
2022/09/30 00:03:03;;;;;;;58.77;15.10;;;9.90;44.30;;;;;;5036438;28;20577;-62
2022/09/30 00:05:31;;;;;;;83.67;15.27;;;9.90;44.70;;;;;;5038377;28;20462;-61
2022/09/30 00:07:58;;;;;;;41.53;13.50;;;9.80;44.60;;;;;;5039035;28;20562;-62
2022/09/30 00:10:26;;;;;;;17.23;12.17;;;9.90;44.70;;;;;;5037981;28;20544;-62
2022/09/30 00:12:53;;;;;;;61.30;15.47;;;9.90;44.60;;;;;;5039283;28;20546;-62
2022/09/30 00:15:20;;;;;;;45.60;14.10;;;9.90;44.50;;;;;;5033892;28;20916;-62
2022/09/30 00:17:47;;;;;;;31.70;13.30;;;9.90;44.60;;;;;;5037552;28;20463;-62
2022/09/30 00:20:14;;;;;;;39.07;13.83;;;9.90;44.40;;;;;;5035179;28;20512;-62
2022/09/30 00:22:43;;;;;;;41.17;13.40;;;9.90;44.40;;;;;;5037345;28;20483;-62
2022/09/30 00:25:10;;;;;;;39.00;14.60;;;9.90;44.30;;;;;;5036254;28;20959;-62
2022/09/30 00:27:37;;;;;;;48.77;14.90;;;9.90;44.30;;;;;;5038953;28;20545;-62
2022/09/30 00:30:05;;;;;;;39.97;14.90;;;9.90;44.20;;;;;;5039439;28;20569;-62
2022/09/30 00:32:31;;;;;;;40.43;15.13;;;9.90;44.40;;;;;;5041037;28;20562;-62
2022/09/30 00:34:58;;;;;;;35.40;14.27;;;9.90;44.40;;;;;;5039941;28;20572;-61
2022/09/30 00:37:25;;;;;;;45.57;15.03;;;9.90;44.40;;;;;;5040406;28;20931;-62
2022/09/30 00:39:53;;;;;;;32.57;15.97;;;9.90;44.40;;;;;;5044597;28;20546;-62
2022/09/30 00:42:21;;;;;;;56.93;16.60;;;9.90;44.60;;;;;;5054961;28;20481;-62
2022/09/30 00:44:52;;;;;;;60.03;15.87;;;9.90;44.60;;;;;;5044296;28;20458;-62
2022/09/30 00:47:34;;;;;;;39.10;15.80;;;9.90;44.60;;;;;;5041048;28;20486;-62
2022/09/30 00:50:06;;;;;;;36.63;16.57;;;10.00;44.50;;;;;;5041620;28;20474;-61
2022/09/30 00:52:34;;;;;;;27.40;18.47;;;9.90;44.40;;;;;;5041988;28;20546;-61
2022/09/30 00:55:07;;;;;;;24.73;16.40;;;10.00;44.30;;;;;;5041492;28;20550;-62
2022/09/30 00:57:34;;;;;;;28.93;18.23;;;10.00;44.40;;;;;;5040287;28;20851;-62
2022/09/30 01:00:02;;;;;;;34.43;18.20;;;9.90;45.00;;;;;;5037448;28;20505;-62
2022/09/30 01:02:29;;;;;;;38.80;18.20;;;10.00;44.30;;;;;;5035353;28;20513;-61
2022/09/30 01:04:57;;;;;;;41.00;19.57;;;10.00;44.50;;;;;;5045845;28;20458;-61
2022/09/30 01:07:24;;;;;;;47.20;19.17;;;10.00;44.50;;;;;;5044716;28;20553;-62
2022/09/30 01:09:52;;;;;;;65.07;19.70;;;10.00;44.60;;;;;;5044003;28;20569;-61
2022/09/30 01:12:23;;;;;;;24.63;17.33;;;10.00;44.60;;;;;;5041298;28;20552;-61
2022/09/30 01:14:52;;;;;;;45.10;19.17;;;10.00;44.70;;;;;;5039076;28;20557;-61
2022/09/30 01:17:32;;;;;;;60.60;20.20;;;10.00;44.40;;;;;;5034520;28;20557;-62
2022/09/30 01:20:40;;;;;;;54.30;19.93;;;10.00;44.50;;;;;;5038666;28;20565;-61
2022/09/30 01:23:46;;;;;;;61.07;19.23;;;10.00;44.60;;;;;;5002966;28;20485;-62
2022/09/30 01:26:54;;;;;;;48.33;18.23;;;10.00;44.70;;;;;;5039898;28;20540;-61
2022/09/30 01:29:55;;;;;;;60.57;19.63;;;10.00;44.70;;;;;;5039795;28;20598;-61
2022/09/30 01:32:35;;;;;;;30.90;18.40;;;10.00;44.80;;;;;;5038155;28;20574;-61
2022/09/30 01:35:11;;;;;;;51.37;18.93;;;10.00;44.80;;;;;;5037163;28;20566;-62
2022/09/30 01:37:49;;;;;;;33.00;19.93;;;10.00;44.80;;;;;;5046717;28;20549;-62
2022/09/30 01:40:22;;;;;;;57.47;21.07;;;10.00;44.60;;;;;;5033933;28;20494;-61
2022/09/30 01:42:58;;;;;;;26.57;18.77;;;10.00;44.60;;;;;;5040198;28;20576;-62
2022/09/30 01:45:32;;;;;;;49.37;20.60;;;10.10;44.60;;;;;;5038936;28;20472;-62
2022/09/30 01:48:05;;;;;;;36.43;19.70;;;10.00;44.50;;;;;;5036622;28;20808;-62
2022/09/30 01:50:42;;;;;;;64.90;21.90;;;10.00;44.50;;;;;;5038140;28;20916;-61
2022/09/30 01:53:14;;;;;;;37.53;19.33;;;10.10;44.60;;;;;;5037078;28;20560;-61
2022/09/30 01:55:49;;;;;;;33.70;19.30;;;10.00;44.60;;;;;;5041758;28;21050;-62
2022/09/30 01:58:25;;;;;;;44.30;19.87;;;10.00;44.50;;;;;;5040095;28;21018;-61
2022/09/30 02:00:56;;;;;;;39.20;19.30;;;10.00;44.50;;;;;;5042282;28;21005;-61
2022/09/30 02:03:31;;;;;;;41.10;18.37;;;10.10;44.60;;;;;;5030238;28;20862;-62
2022/09/30 02:06:02;;;;;;;30.63;19.30;;;10.00;44.40;;;;;;5039888;28;20464;-61
2022/09/30 02:08:36;;;;;;;36.13;17.20;;;10.00;44.40;;;;;;5036334;28;20536;-62
2022/09/30 02:11:05;;;;;;;60.17;19.67;;;10.00;44.10;;;;;;5040867;28;20625;-61
2022/09/30 02:13:38;;;;;;;51.90;18.90;;;10.10;44.00;;;;;;5031270;28;20459;-62
2022/09/30 02:16:12;;;;;;;38.17;16.10;;;10.00;44.00;;;;;;5040771;28;20549;-61
2022/09/30 02:18:44;;;;;;;54.30;17.13;;;10.00;44.00;;;;;;5034455;28;21071;-62
2022/09/30 02:21:16;;;;;;;59.33;17.03;;;10.00;44.10;;;;;;5034767;28;20461;-61
2022/09/30 02:23:47;;;;;;;62.30;17.63;;;10.00;44.10;;;;;;5034917;28;20482;-61
2022/09/30 02:26:18;;;;;;;60.03;17.07;;;9.90;44.10;;;;;;5039627;28;20907;-62
2022/09/30 02:28:49;;;;;;;59.60;18.90;;;9.90;44.70;;;;;;5046337;28;20724;-61
2022/09/30 02:31:22;;;;;;;86.43;18.00;;;9.90;44.10;;;;;;5044502;28;20552;-61
2022/09/30 02:33:54;;;;;;;36.67;16.37;;;9.80;43.80;;;;;;5047771;28;20458;-61
2022/09/30 02:36:26;;;;;;;61.97;18.37;;;9.80;44.00;;;;;;5049017;28;20480;-61
2022/09/30 02:38:59;;;;;;;34.73;15.73;;;9.80;44.10;;;;;;5044567;28;20477;-61
2022/09/30 02:41:28;;;;;;;57.10;15.67;;;9.80;44.20;;;;;;5046691;28;20897;-61
2022/09/30 02:43:56;;;;;;;33.93;15.33;;;9.80;44.30;;;;;;5047664;28;20480;-61
2022/09/30 02:46:41;;;;;;;25.53;15.90;;;9.80;44.30;;;;;;5041588;28;20557;-62
2022/09/30 02:49:20;;;;;;;47.23;17.53;;;9.80;44.40;;;;;;5049843;28;20477;-62
2022/09/30 02:52:02;;;;;;;165.83;20.90;;;9.80;44.20;;;;;;5041475;28;20461;-62
2022/09/30 02:54:34;;;;;;;27.30;15.13;;;9.80;44.70;;;;;;5042717;28;20459;-61
2022/09/30 02:57:10;;;;;;;37.30;16.97;;;9.70;43.90;;;;;;5052328;28;21193;-62
2022/09/30 02:59:38;;;;;;;68.87;17.80;;;9.70;44.70;;;;;;5038241;28;20898;-61
2022/09/30 03:02:05;;;;;;;46.67;16.50;;;9.70;44.30;;;;;;5045668;28;20486;-62
2022/09/30 03:04:35;;;;;;;57.47;16.17;;;9.70;44.00;;;;;;5041554;28;20949;-62
2022/09/30 03:07:02;;;;;;;72.03;18.30;;;9.70;44.20;;;;;;5044955;28;20461;-62
2022/09/30 03:09:29;;;;;;;52.10;17.17;;;9.70;44.20;;;;;;5044436;28;20477;-61
2022/09/30 03:12:06;;;;;;;117.90;18.97;;;9.60;44.00;;;;;;5045289;28;20981;-61
2022/09/30 03:14:47;;;;;;;107.03;20.50;;;9.60;43.90;;;;;;5043101;28;20507;-62
2022/09/30 03:17:50;;;;;;;42.90;14.50;;;9.50;44.10;;;;;;5039692;28;20477;-62
2022/09/30 03:20:35;;;;;;;47.20;15.90;;;9.50;44.60;;;;;;5041274;28;20485;-61
2022/09/30 03:23:28;;;;;;;23.43;13.73;;;9.40;44.80;;;;;;5046979;28;20474;-61
2022/09/30 03:26:04;;;;;;;47.40;17.37;;;9.40;45.00;;;;;;5045945;28;20466;-62
2022/09/30 03:28:36;;;;;;;50.73;16.17;;;9.40;44.80;;;;;;5048672;28;20958;-61
2022/09/30 03:31:10;;;;;;;32.40;14.87;;;9.40;45.00;;;;;;5044686;28;20481;-61
2022/09/30 03:33:48;;;;;;;37.53;13.30;;;9.40;44.90;;;;;;5047866;28;20533;-61
2022/09/30 03:36:25;;;;;;;27.47;12.47;;;9.40;45.00;;;;;;5054505;28;20463;-62
2022/09/30 03:39:00;;;;;;;31.20;13.00;;;9.40;44.80;;;;;;5039056;28;21031;-62
2022/09/30 03:41:31;;;;;;;37.73;13.93;;;9.40;44.70;;;;;;5040439;28;20453;-61
2022/09/30 03:44:05;;;;;;;46.37;16.63;;;9.50;44.60;;;;;;5040290;28;20478;-61
2022/09/30 03:46:35;;;;;;;48.50;15.30;;;9.40;44.50;;;;;;5043722;28;20458;-61
2022/09/30 03:49:06;;;;;;;40.90;15.07;;;9.40;44.60;;;;;;5036984;28;20479;-62
2022/09/30 03:51:37;;;;;;;46.17;13.47;;;9.40;44.50;;;;;;5044618;28;20466;-61
2022/09/30 03:54:07;;;;;;;27.73;15.00;;;9.40;44.50;;;;;;5044303;28;20458;-62
2022/09/30 03:56:34;;;;;;;36.17;14.73;;;9.40;44.60;;;;;;5046513;28;20454;-62
2022/09/30 03:59:01;;;;;;;72.67;15.53;;;9.50;44.60;;;;;;5045539;28;20488;-62
2022/09/30 04:01:28;;;;;;;41.87;13.33;;;9.40;44.50;;;;;;5036359;28;20474;-61
2022/09/30 04:03:55;;;;;;;34.17;13.03;;;9.40;44.50;;;;;;5041047;28;20485;-62
2022/09/30 04:06:24;;;;;;;38.73;12.00;;;9.40;44.40;;;;;;5038372;28;20470;-62
2022/09/30 04:08:53;;;;;;;35.47;13.23;;;9.40;44.40;;;;;;5038954;28;20482;-61
2022/09/30 04:11:19;;;;;;;61.60;14.30;;;9.40;44.30;;;;;;5039891;28;20467;-61
2022/09/30 04:13:46;;;;;;;31.90;12.50;;;9.40;44.20;;;;;;5034827;28;20467;-61
2022/09/30 04:16:13;;;;;;;70.83;13.87;;;9.40;44.00;;;;;;5043889;28;20454;-61
2022/09/30 04:18:41;;;;;;;31.00;12.93;;;9.30;43.90;;;;;;5042374;28;21232;-61
2022/09/30 04:21:09;;;;;;;55.77;14.60;;;9.30;44.00;;;;;;5042770;28;20496;-62
2022/09/30 04:23:36;;;;;;;47.37;12.40;;;9.30;43.90;;;;;;5039291;28;20475;-61
2022/09/30 04:26:05;;;;;;;21.93;12.00;;;9.30;44.10;;;;;;5046346;28;20480;-62
2022/09/30 04:28:32;;;;;;;34.53;13.90;;;9.30;44.20;;;;;;5039301;28;20506;-61
2022/09/30 04:30:59;;;;;;;42.40;12.80;;;9.30;44.30;;;;;;5037582;28;20473;-62
2022/09/30 04:33:27;;;;;;;35.40;12.93;;;9.20;44.10;;;;;;5034399;28;20455;-62
2022/09/30 04:35:54;;;;;;;22.30;12.50;;;9.30;44.40;;;;;;5035456;28;20458;-62
2022/09/30 04:38:21;;;;;;;65.60;14.10;;;9.30;44.30;;;;;;5030321;28;20546;-59
2022/09/30 04:40:49;;;;;;;29.23;12.50;;;9.20;44.20;;;;;;5040492;28;20458;-62
2022/09/30 04:43:17;;;;;;;43.03;12.63;;;9.20;44.80;;;;;;5040544;28;20616;-60
2022/09/30 04:45:45;;;;;;;45.07;14.47;;;9.20;44.10;;;;;;5033793;28;20752;-62
2022/09/30 04:48:12;;;;;;;48.13;13.57;;;9.20;44.10;;;;;;5036257;28;20946;-62
2022/09/30 04:50:39;;;;;;;26.63;13.03;;;9.20;44.00;;;;;;5041713;28;20466;-61
2022/09/30 04:53:07;;;;;;;74.43;13.10;;;9.20;44.00;;;;;;5043087;28;20462;-61
2022/09/30 04:55:34;;;;;;;47.10;13.30;;;9.20;43.90;;;;;;5034503;28;20954;-61
2022/09/30 04:58:00;;;;;;;84.53;14.07;;;9.20;43.60;;;;;;5043773;28;20462;-61
2022/09/30 05:00:29;;;;;;;109.23;14.80;;;9.20;43.30;;;;;;5036157;28;20485;-61
2022/09/30 05:02:56;;;;;;;43.07;11.07;;;9.20;43.20;;;;;;5040182;28;20977;-61
2022/09/30 05:05:23;;;;;;;29.90;10.33;;;9.10;43.50;;;;;;5037233;28;20474;-61
2022/09/30 05:07:50;;;;;;;31.70;12.13;;;9.10;43.80;;;;;;5044934;28;20466;-61
2022/09/30 05:10:17;;;;;;;26.43;11.23;;;9.10;43.90;;;;;;5042864;28;20566;-61
2022/09/30 05:12:44;;;;;;;24.17;9.90;;;9.00;43.90;;;;;;5038346;28;20459;-62
2022/09/30 05:15:11;;;;;;;38.00;12.00;;;9.00;43.90;;;;;;5042938;28;20477;-60
2022/09/30 05:17:39;;;;;;;28.90;10.00;;;9.00;43.90;;;;;;5034277;28;20946;-61
2022/09/30 05:20:09;;;;;;;34.40;11.73;;;9.00;43.90;;;;;;5039186;28;20877;-60
2022/09/30 05:22:37;;;;;;;44.90;12.27;;;9.00;43.90;;;;;;5037652;28;20962;-60
2022/09/30 05:25:04;;;;;;;46.90;11.60;;;9.00;43.90;;;;;;5045232;28;20501;-60
2022/09/30 05:27:31;;;;;;;45.57;12.37;;;9.00;43.90;;;;;;5040548;28;21015;-60
2022/09/30 05:29:58;;;;;;;26.23;12.43;;;9.00;43.90;;;;;;5036671;28;20494;-60
2022/09/30 05:32:24;;;;;;;56.20;12.33;;;9.00;43.80;;;;;;5040499;28;20485;-60
2022/09/30 05:34:53;;;;;;;63.37;15.37;;;9.00;43.70;;;;;;5037653;28;20461;-59
2022/09/30 05:37:20;;;;;;;23.83;11.53;;;8.90;43.80;;;;;;5041173;28;20502;-59
2022/09/30 05:39:46;;;;;;;26.37;12.10;;;9.00;44.00;;;;;;5044196;28;20501;-59
2022/09/30 05:42:13;;;;;;;25.47;12.70;;;9.00;43.90;;;;;;5036507;28;20459;-59
2022/09/30 05:44:40;;;;;;;25.90;12.10;;;9.00;44.10;;;;;;5039488;28;20481;-60
2022/09/30 05:47:10;;;;;;;19.57;10.77;;;9.00;44.10;;;;;;5043290;28;20462;-65
2022/09/30 05:49:38;;;;;;;17.07;10.73;;;9.00;44.10;;;;;;5040555;28;20474;-62
2022/09/30 05:52:07;;;;;;;32.43;11.40;;;9.10;44.10;;;;;;5036634;28;20462;-65
2022/09/30 05:54:33;;;;;;;29.43;11.27;;;9.00;44.20;;;;;;5039870;28;20995;-65
2022/09/30 05:57:00;;;;;;;26.60;11.00;;;9.10;44.30;;;;;;5039744;28;20839;-64
2022/09/30 05:59:27;;;;;;;31.80;10.43;;;9.10;44.40;;;;;;5039394;28;20482;-62
2022/09/30 06:01:54;;;;;;;27.80;10.70;;;9.10;44.20;;;;;;5040574;28;20473;-62
2022/09/30 06:04:21;;;;;;;97.10;14.80;;;9.10;44.20;;;;;;5036833;28;20483;-61
2022/09/30 06:06:48;;;;;;;29.90;11.50;;;9.10;43.80;;;;;;5044423;28;20569;-64
2022/09/30 06:09:17;;;;;;;24.93;11.53;;;9.10;43.70;;;;;;5039526;28;20535;-64
2022/09/30 06:11:44;;;;;;;24.77;11.90;;;9.10;43.90;;;;;;5038685;28;20471;-63
2022/09/30 06:14:11;;;;;;;45.73;11.37;;;9.10;43.70;;;;;;5041114;28;20454;-62
2022/09/30 06:16:37;;;;;;;74.60;12.97;;;9.10;43.90;;;;;;5038202;28;20454;-62
2022/09/30 06:19:05;;;;;;;167.00;16.70;;;9.10;43.60;;;;;;5032445;28;21472;-63
2022/09/30 06:21:32;;;;;;;76.50;12.83;;;9.10;43.20;;;;;;5033881;28;20549;-62
2022/09/30 06:23:59;;;;;;;24.70;10.50;;;9.10;42.90;;;;;;5037805;28;21014;-62
2022/09/30 06:26:27;;;;;;;18.97;9.37;;;9.10;43.10;;;;;;5041921;28;20454;-65
2022/09/30 06:28:54;;;;;;;37.80;9.60;;;9.00;43.30;;;;;;5039183;28;20996;-63
2022/09/30 06:31:21;;;;;;;85.80;13.30;;;9.10;43.50;;;;;;5034628;28;20524;-61
2022/09/30 06:33:48;;;;;;;46.50;11.80;;;9.10;43.70;;;;;;5038079;28;20462;-61
2022/09/30 06:36:16;;;;;;;28.27;10.47;;;9.10;43.60;;;;;;5042473;28;20466;-62
2022/09/30 06:38:42;;;;;;;62.53;12.70;;;9.10;43.60;;;;;;5033733;28;20478;-62
2022/09/30 06:41:09;;;;;;;14.80;9.83;;;9.20;43.50;;;;;;5036947;28;20467;-63
2022/09/30 06:43:39;;;;;;;29.60;10.67;;;9.20;43.50;;;;;;5038898;28;21009;-64
2022/09/30 06:46:06;;;;;;;22.27;12.00;;;9.20;43.60;;;;;;5041723;28;20462;-63
2022/09/30 06:48:33;;;;;;;29.87;11.10;;;9.20;43.70;;;;;;5035746;28;20493;-62
2022/09/30 06:51:00;;;;;;;40.17;12.40;;;9.30;43.60;;;;;;5046738;28;20450;-66
2022/09/30 06:53:28;;;;;;;36.53;12.30;;;9.30;43.50;;;;;;5033191;28;20465;-65
2022/09/30 06:55:58;;;;;;;67.40;14.27;;;9.40;43.50;;;;;;5043234;28;20963;-65
2022/09/30 06:58:25;;;;;;;40.77;12.30;;;9.40;43.40;;;;;;5037383;28;20652;-65
2022/09/30 07:01:01;;;;;;;32.30;12.20;;;9.50;43.30;;;;;;5042902;28;20482;-65
2022/09/30 07:03:30;;;;;;;29.07;11.23;;;9.50;43.20;;;;;;5038336;28;20492;-66
2022/09/30 07:05:58;;;;;;;60.23;13.87;;;9.50;42.30;;;;;;5037648;28;20462;-65
2022/09/30 07:08:27;;;;;;;52.67;12.13;;;9.50;42.20;;;;;;5037752;28;20510;-65
2022/09/30 07:10:54;;;;;;;48.30;13.40;;;9.50;42.30;;;;;;5034171;28;20466;-62
2022/09/30 07:13:21;;;;;;;35.37;11.40;;;9.50;42.40;;;;;;5042902;28;20469;-65
2022/09/30 07:15:50;;;;;;;42.23;12.10;;;9.50;42.50;;;;;;5043119;28;20465;-59
2022/09/30 07:18:19;;;;;;;35.00;13.00;;;9.50;42.70;;;;;;5045437;28;20458;-59
2022/09/30 07:20:48;;;;;;;29.23;12.13;;;9.50;42.70;;;;;;5044100;28;20489;-59
2022/09/30 07:23:15;;;;;;;33.20;12.50;;;9.60;42.60;;;;;;5037695;28;20482;-59
2022/09/30 07:25:49;;;;;;;27.40;12.20;;;9.60;42.60;;;;;;5046957;28;20473;-59
2022/09/30 07:28:16;;;;;;;22.83;11.70;;;9.60;42.70;;;;;;5035897;28;20545;-58
2022/09/30 07:30:43;;;;;;;27.00;11.37;;;9.70;42.80;;;;;;5039808;28;20465;-59
2022/09/30 07:33:15;;;;;;;20.33;11.57;;;9.80;42.90;;;;;;5042658;28;20489;-59
2022/09/30 07:35:52;;;;;;;27.70;12.87;;;9.90;42.90;;;;;;5044125;28;20450;-59
2022/09/30 07:38:20;;;;;;;25.80;12.30;;;9.90;43.00;;;;;;5037343;28;21164;-59
2022/09/30 07:40:57;;;;;;;24.67;12.00;;;10.00;42.60;;;;;;5042567;28;20470;-59
2022/09/30 07:43:24;;;;;;;25.47;12.33;;;10.00;42.60;;;;;;5042101;28;20469;-59
2022/09/30 07:45:54;;;;;;;23.50;12.50;;;10.00;42.50;;;;;;5036202;28;20473;-59
2022/09/30 07:51:07;;;;;;;34.20;13.10;;;10.10;42.20;;;;;;5039221;28;21110;-60
2022/09/30 07:53:34;;;;;;;26.20;13.30;;;10.10;42.00;;;;;;5036618;28;21138;-60
2022/09/30 07:56:03;;;;;;;29.47;13.37;;;10.20;41.40;;;;;;5045105;28;20470;-58
2022/09/30 07:58:30;;;;;;;24.93;13.30;;;10.20;40.40;;;;;;5045931;28;20604;-58
2022/09/30 08:00:56;;;;;;;20.33;11.53;;;10.20;40.40;;;;;;5047701;28;20482;-58
2022/09/30 08:03:23;;;;;;;21.20;11.70;;;10.30;40.80;;;;;;5039219;28;20561;-58
2022/09/30 08:05:50;;;;;;;23.57;13.50;;;10.20;40.80;;;;;;5041057;28;20490;-58
2022/09/30 08:08:18;;;;;;;23.80;12.57;;;10.30;41.10;;;;;;5040286;28;20461;-58
2022/09/30 08:10:45;;;;;;;28.17;15.77;;;10.30;41.20;;;;;;5044453;28;20458;-59
2022/09/30 08:13:13;;;;;;;30.80;14.77;;;10.40;41.20;;;;;;5044466;28;20466;-58
2022/09/30 08:15:40;;;;;;;39.23;14.60;;;10.40;41.10;;;;;;5046138;28;20456;-59
2022/09/30 08:18:07;;;;;;;27.03;16.70;;;10.50;41.10;;;;;;5035970;28;20462;-59
2022/09/30 08:20:34;;;;;;;37.23;17.70;;;10.50;41.00;;;;;;5040126;28;20490;-59
2022/09/30 08:23:00;;;;;;;26.00;14.03;;;10.50;41.20;;;;;;5038652;28;20474;-58
2022/09/30 08:25:28;;;;;;;30.17;15.97;;;10.60;41.10;;;;;;5039557;28;21025;-58
2022/09/30 08:27:55;;;;;;;31.57;14.10;;;10.60;40.90;;;;;;5044596;28;20990;-59
2022/09/30 08:30:22;;;;;;;23.87;16.20;;;10.70;40.80;;;;;;5037589;28;20485;-59
2022/09/30 08:32:49;;;;;;;27.03;13.53;;;10.70;40.70;;;;;;5043051;28;20973;-58
2022/09/30 08:35:15;;;;;;;25.03;13.60;;;10.80;40.60;;;;;;5042289;28;20454;-59
2022/09/30 08:37:42;;;;;;;24.87;14.10;;;10.80;40.50;;;;;;5042719;28;20458;-59
2022/09/30 08:40:19;;;;;;;40.03;19.00;;;10.90;40.40;;;;;;5041075;28;20871;-59
2022/09/30 08:43:00;;;;;;;45.70;23.13;;;11.00;40.30;;;;;;5034105;28;20516;-58
2022/09/30 08:45:35;;;;;;;42.47;22.60;;;11.00;40.20;;;;;;5044998;28;20504;-59
2022/09/30 08:48:14;;;;;;;43.53;21.07;;;11.00;39.90;;;;;;5036015;28;20458;-59
2022/09/30 08:50:50;;;;;;;24.77;13.90;;;11.00;39.60;;;;;;5042189;28;20461;-59
2022/09/30 08:53:23;;;;;;;23.87;13.00;;;11.00;39.30;;;;;;5039291;28;20474;-58
2022/09/30 08:55:51;;;;;;;22.83;13.00;;;11.00;39.10;;;;;;5044488;28;20450;-58
2022/09/30 08:58:25;;;;;;;27.90;15.47;;;11.00;39.00;;;;;;5043502;28;20466;-57
2022/09/30 09:00:57;;;;;;;22.07;12.50;;;11.00;39.10;;;;;;5043483;28;20472;-58
2022/09/30 09:03:28;;;;;;;27.77;15.90;;;11.00;39.10;;;;;;5044904;28;20455;-58
2022/09/30 09:06:06;;;;;;;26.80;14.23;;;11.00;39.10;;;;;;5040193;28;20478;-58
2022/09/30 09:08:48;;;;;;;29.77;15.17;;;11.00;39.40;;;;;;5042654;28;20489;-58
2022/09/30 09:11:23;;;;;;;26.43;13.33;;;11.10;39.50;;;;;;5043569;28;20457;-58
2022/09/30 09:13:59;;;;;;;23.00;13.63;;;11.10;39.40;;;;;;5033954;28;20460;-57
2022/09/30 09:16:34;;;;;;;32.97;15.17;;;11.10;39.30;;;;;;5040112;28;20577;-57
2022/09/30 09:19:09;;;;;;;32.13;13.50;;;11.20;39.30;;;;;;5040073;28;20477;-57
2022/09/30 09:21:51;;;;;;;31.70;14.90;;;11.20;39.30;;;;;;5040627;28;20835;-58
2022/09/30 09:24:20;;;;;;;25.63;13.80;;;11.20;39.10;;;;;;5037989;28;20488;-58
2022/09/30 09:26:47;;;;;;;40.90;21.00;;;11.30;39.10;;;;;;5034956;28;20783;-58
2022/09/30 09:29:32;;;;;;;65.63;32.97;;;11.30;39.00;;;;;;5041864;28;20827;-58
2022/09/30 09:32:00;;;;;;;53.23;26.67;;;11.40;39.00;;;;;;5038842;28;20479;-58
2022/09/30 09:34:30;;;;;;;28.57;15.80;;;11.40;38.90;;;;;;5039256;28;20946;-60
2022/09/30 09:37:07;;;;;;;30.43;15.90;;;11.50;38.80;;;;;;5045486;28;20464;-61
2022/09/30 09:39:57;;;;;;;38.97;18.10;;;11.50;38.70;;;;;;5046152;28;20485;-61
2022/09/30 09:42:39;;;;;;;43.47;21.40;;;11.50;38.70;;;;;;5045593;28;20468;-61
2022/09/30 09:45:17;;;;;;;47.30;24.47;;;11.60;38.60;;;;;;5042907;28;20473;-60
2022/09/30 09:47:49;;;;;;;29.60;15.07;;;11.60;38.40;;;;;;5042400;28;20466;-60
2022/09/30 09:50:21;;;;;;;29.10;15.33;;;11.70;38.20;;;;;;5039949;28;20477;-61
2022/09/30 09:53:02;;;;;;;24.27;14.77;;;11.70;38.10;;;;;;5043626;28;20549;-61
2022/09/30 09:55:28;;;;;;;22.27;14.33;;;11.70;38.10;;;;;;5041651;28;20457;-60
2022/09/30 09:58:05;;;;;;;28.97;16.57;;;11.80;38.10;;;;;;5038036;28;20476;-60
2022/09/30 10:03:22;;;;;;;28.33;15.00;;;11.90;38.10;;;;;;5030964;28;20827;-60
2022/09/30 10:06:01;;;;;;;30.23;17.03;;;12.00;37.90;;;;;;5036965;28;20524;-60
2022/09/30 10:08:30;;;;;;;37.77;20.03;;;12.00;37.80;;;;;;5035959;28;20463;-60
2022/09/30 10:10:59;;;;;;;33.40;19.57;;;12.10;37.70;;;;;;5041526;28;20459;-60
2022/09/30 10:13:29;;;;;;;33.23;20.27;;;12.20;37.50;;;;;;5046084;28;20997;-60
2022/09/30 10:15:58;;;;;;;32.70;17.70;;;12.20;37.30;;;;;;5029468;28;20451;-60
2022/09/30 10:18:28;;;;;;;33.90;18.50;;;12.20;37.30;;;;;;5041068;28;20484;-60
2022/09/30 10:20:59;;;;;;;30.70;18.07;;;12.30;36.90;;;;;;5043596;28;20450;-59
2022/09/30 10:23:29;;;;;;;25.97;16.00;;;12.20;36.50;;;;;;5039909;28;20465;-61
2022/09/30 10:26:16;;;;;;;27.30;16.57;;;12.30;36.50;;;;;;5036190;28;20489;-60
2022/09/30 10:28:46;;;;;;;32.00;17.30;;;12.20;36.10;;;;;;5040364;28;20485;-60
2022/09/30 10:31:17;;;;;;;29.63;18.47;;;12.20;35.30;;;;;;5037976;28;20477;-60
2022/09/30 10:33:46;;;;;;;26.27;16.40;;;12.20;35.10;;;;;;5035957;28;20465;-60
2022/09/30 10:36:18;;;;;;;30.80;17.60;;;12.10;35.20;;;;;;5040689;28;20454;-60
2022/09/30 10:38:51;;;;;;;32.30;18.57;;;12.00;35.20;;;;;;5037090;28;20485;-60
2022/09/30 10:41:23;;;;;;;32.83;18.57;;;11.90;35.70;;;;;;5047184;28;20805;-59
2022/09/30 10:43:52;;;;;;;31.30;18.77;;;11.90;36.20;;;;;;5033479;28;20516;-65
2022/09/30 10:46:25;;;;;;;29.60;18.57;;;11.90;36.50;;;;;;5041020;28;20500;-58
2022/09/30 10:48:54;;;;;;;30.60;18.33;;;11.90;36.70;;;;;;5045267;28;20478;-61
2022/09/30 10:51:32;;;;;;;31.17;19.43;;;11.90;36.50;;;;;;5051282;28;20857;-61
2022/09/30 10:53:59;;;;;;;33.30;19.30;;;11.90;36.70;;;;;;5044624;28;20454;-60
2022/09/30 10:56:41;;;;;;;28.70;17.10;;;11.90;36.50;;;;;;5043122;28;20458;-61
2022/09/30 10:59:23;;;;;;;32.70;18.10;;;11.90;36.30;;;;;;5047742;28;20481;-61
2022/09/30 11:01:56;;;;;;;29.53;17.67;;;11.90;35.90;;;;;;5042113;28;20533;-62
2022/09/30 11:04:29;;;;;;;26.60;17.87;;;11.80;36.20;;;;;;5043115;28;20852;-61
2022/09/30 11:07:02;;;;;;;25.90;15.17;;;11.90;36.30;;;;;;5051116;28;20481;-61
2022/09/30 11:09:34;;;;;;;29.20;17.17;;;11.80;36.40;;;;;;5047482;28;20478;-60
2022/09/30 11:12:10;;;;;;;25.50;15.33;;;11.70;36.40;;;;;;5043942;28;20480;-60
2022/09/30 11:14:42;;;;;;;29.13;16.80;;;11.70;36.40;;;;;;5042730;28;20457;-60
2022/09/30 11:17:30;;;;;;;26.00;15.50;;;11.70;36.60;;;;;;5048398;28;20454;-62
2022/09/30 11:20:07;;;;;;;20.57;13.20;;;11.70;36.80;;;;;;5045579;28;20490;-61
2022/09/30 11:22:42;;;;;;;20.00;12.83;;;11.80;36.40;;;;;;5046524;28;20461;-61
2022/09/30 11:25:14;;;;;;;22.23;14.27;;;11.90;35.60;;;;;;5038589;28;20484;-61
2022/09/30 11:27:57;;;;;;;19.47;12.63;;;11.90;35.50;;;;;;5050606;28;20838;-61
2022/09/30 11:30:28;;;;;;;20.80;13.63;;;11.80;35.70;;;;;;5040500;28;20857;-61
2022/09/30 11:33:18;;;;;;;20.67;12.57;;;11.80;35.70;;;;;;5045769;28;20459;-59
2022/09/30 11:35:54;;;;;;;17.63;11.73;;;11.90;35.60;;;;;;5036047;28;20843;-60
2022/09/30 11:38:38;;;;;;;19.90;13.13;;;11.90;35.60;;;;;;5056478;28;20454;-60
2022/09/30 11:41:11;;;;;;;21.40;14.50;;;11.90;35.80;;;;;;5040581;28;20462;-61
2022/09/30 11:43:52;;;;;;;18.47;12.20;;;12.00;35.80;;;;;;5047869;28;20461;-62
2022/09/30 11:46:39;;;;;;;19.00;12.70;;;12.10;35.70;;;;;;5041375;28;20481;-61
2022/09/30 11:49:24;;;;;;;17.70;12.17;;;12.20;35.30;;;;;;5043839;28;20481;-61
2022/09/30 11:52:03;;;;;;;20.37;12.40;;;12.20;35.20;;;;;;5040758;28;20816;-61
2022/09/30 11:54:44;;;;;;;21.37;16.63;;;12.30;35.30;;;;;;5045249;28;20462;-61
2022/09/30 11:57:18;;;;;;;25.80;17.70;;;12.40;35.10;;;;;;5049554;28;20536;-59
2022/09/30 11:59:49;;;;;;;16.90;12.47;;;12.50;34.90;;;;;;5044849;28;20573;-60
2022/09/30 12:02:29;;;;;;;20.57;14.00;;;12.50;34.50;;;;;;5050991;28;20474;-59
2022/09/30 12:05:03;;;;;;;18.87;13.10;;;12.60;34.20;;;;;;5038202;28;20455;-60
2022/09/30 12:07:38;;;;;;;20.70;13.07;;;12.60;34.10;;;;;;5046735;28;21035;-62
2022/09/30 12:10:16;;;;;;;19.00;12.33;;;12.60;34.00;;;;;;5036755;28;20602;-65
2022/09/30 12:12:46;;;;;;;18.27;12.27;;;12.60;33.70;;;;;;5038257;28;20487;-61
2022/09/30 12:15:17;;;;;;;18.13;12.30;;;12.60;33.60;;;;;;5038389;28;20468;-61
2022/09/30 12:17:48;;;;;;;20.27;12.87;;;12.60;33.40;;;;;;5042779;28;20465;-68
2022/09/30 12:20:24;;;;;;;18.83;11.93;;;12.50;33.10;;;;;;5044561;28;20489;-59
2022/09/30 12:22:55;;;;;;;19.67;11.90;;;12.60;33.10;;;;;;5042741;28;20468;-59
2022/09/30 12:25:26;;;;;;;27.93;14.07;;;12.50;33.20;;;;;;5039337;28;20957;-58
2022/09/30 12:27:57;;;;;;;17.73;12.70;;;12.60;33.20;;;;;;5040466;28;20467;-59
2022/09/30 12:30:25;;;;;;;17.77;11.63;;;12.60;33.10;;;;;;5041409;28;20486;-57
2022/09/30 12:33:16;;;;;;;17.00;11.90;;;12.70;32.90;;;;;;5042115;28;20457;-58
2022/09/30 12:36:21;;;;;;;16.27;11.40;;;12.70;32.70;;;;;;5046442;28;20458;-64
2022/09/30 12:39:06;;;;;;;17.33;12.40;;;12.90;32.50;;;;;;5040906;28;20496;-60
2022/09/30 12:41:53;;;;;;;16.70;10.67;;;13.10;32.20;;;;;;5039468;28;20476;-62
2022/09/30 12:44:59;;;;;;;16.53;11.07;;;13.20;32.00;;;;;;5043301;28;20462;-61
2022/09/30 12:47:34;;;;;;;17.70;11.07;;;13.20;31.60;;;;;;5017230;28;20484;-60
2022/09/30 12:50:06;;;;;;;28.53;23.23;;;13.30;31.30;;;;;;5031237;28;20486;-60
2022/09/30 12:52:35;;;;;;;20.27;13.60;;;13.30;31.00;;;;;;5044311;28;20458;-60
2022/09/30 12:55:08;;;;;;;22.80;16.47;;;13.40;30.70;;;;;;5032623;28;20466;-60
2022/09/30 12:57:41;;;;;;;17.33;12.70;;;13.40;30.70;;;;;;5035169;28;20461;-60
2022/09/30 13:00:15;;;;;;;17.07;13.63;;;13.40;30.40;;;;;;5034733;28;20473;-61